createdAt,value
2023-05-25T00:02:48.825Z,100557.77
2023-05-25T00:06:38.861Z,100556.31
2023-05-25T00:10:27.393Z,100556.23
2023-05-25T00:14:17.954Z,100558.35
2023-05-25T00:18:06.511Z,100563.48
2023-05-25T00:21:54.586Z,100561.95
2023-05-25T00:25:43.358Z,100557.86
2023-05-25T00:29:32.178Z,100552.32
2023-05-25T00:33:21.359Z,100553.23
2023-05-25T00:37:10.213Z,100551.92
2023-05-25T00:40:58.690Z,100558.63
2023-05-25T00:44:39.671Z,100556.47
2023-05-25T00:48:22.372Z,100556.24
2023-05-25T00:52:11.302Z,100553.02
2023-05-25T00:55:59.754Z,100550.03
2023-05-25T00:59:41.655Z,100548.22
2023-05-25T01:03:30.301Z,100552.49
2023-05-25T01:07:18.917Z,100559.58
2023-05-25T01:11:07.547Z,100569.21
2023-05-25T01:14:55.991Z,100565.17
2023-05-25T01:18:44.505Z,100561.80
2023-05-25T01:22:45.158Z,100562.71
2023-05-25T01:26:37.508Z,100565.29
2023-05-25T01:30:26.029Z,100566.69
2023-05-25T01:34:14.500Z,100571.22
2023-05-25T01:38:03.051Z,100566.89
2023-05-25T01:41:53.050Z,100565.81
2023-05-25T01:45:41.645Z,100561.82
2023-05-25T01:49:32.101Z,100562.02
2023-05-25T01:53:20.678Z,100565.05
2023-05-25T01:57:09.256Z,100562.52
2023-05-25T02:00:57.944Z,100562.10
2023-05-25T02:04:46.547Z,100567.46
2023-05-25T02:08:35.446Z,100567.95
2023-05-25T02:12:16.632Z,100572.20
2023-05-25T02:15:34.169Z,100575.97
2023-05-25T02:19:11.561Z,100578.90
2023-05-25T02:23:00.019Z,100577.39
2023-05-25T02:26:41.259Z,100580.30
2023-05-25T02:30:29.729Z,100578.48
2023-05-25T02:34:18.173Z,100579.20
2023-05-25T02:38:06.642Z,100585.93
2023-05-25T02:41:55.107Z,100588.39
2023-05-25T02:45:43.803Z,100587.31
2023-05-25T02:49:32.634Z,100585.98
2023-05-25T02:53:15.499Z,100587.70
2023-05-25T02:57:03.970Z,100588.38
2023-05-25T03:00:52.703Z,100586.77
2023-05-25T03:04:41.224Z,100588.73
2023-05-25T03:08:28.847Z,100586.29
2023-05-25T03:12:17.408Z,100584.58
2023-05-25T03:16:05.089Z,100587.82
2023-05-25T03:19:55.796Z,100590.89
2023-05-25T03:23:45.332Z,100587.61
2023-05-25T03:27:33.522Z,100591.91
2023-05-25T03:31:19.813Z,100595.63
2023-05-25T03:35:08.485Z,100599.23
2023-05-25T03:38:57.025Z,100602.17
2023-05-25T03:42:45.608Z,100597.46
2023-05-25T03:46:23.065Z,100599.30
2023-05-25T03:50:11.728Z,100596.75
2023-05-25T03:54:00.196Z,100598.38
2023-05-25T03:57:49.918Z,100595.30
2023-05-25T04:01:28.613Z,100600.11
2023-05-25T04:05:17.193Z,100603.00
2023-05-25T04:09:05.714Z,100602.48
2023-05-25T04:12:55.702Z,100606.59
2023-05-25T04:16:44.333Z,100604.27
2023-05-25T04:20:33.194Z,100601.48
2023-05-25T04:24:21.954Z,100603.23
2023-05-25T04:28:11.049Z,100600.29
2023-05-25T04:32:03.332Z,100600.89
2023-05-25T04:35:50.967Z,100598.27
2023-05-25T04:39:39.585Z,100593.30
2023-05-25T04:43:13.880Z,100594.39
2023-05-25T04:46:47.992Z,100597.15
2023-05-25T04:50:09.493Z,100596.71
2023-05-25T04:53:20.681Z,100594.75
2023-05-25T04:57:02.000Z,100596.20
2023-05-25T05:00:52.505Z,100597.31
2023-05-25T05:04:41.786Z,100595.00
2023-05-25T05:08:30.369Z,100594.83
2023-05-25T05:12:20.198Z,100592.13
2023-05-25T05:16:08.928Z,100593.02
2023-05-25T05:19:58.145Z,100590.17
2023-05-25T05:23:46.772Z,100593.08
2023-05-25T05:27:35.251Z,100590.67
2023-05-25T05:31:25.420Z,100590.70
2023-05-25T05:35:13.940Z,100592.92
2023-05-25T05:39:02.626Z,100590.09
2023-05-25T05:42:51.183Z,100596.30
2023-05-25T05:46:39.680Z,100597.54
2023-05-25T05:50:28.207Z,100596.95
2023-05-25T05:54:16.715Z,100600.19
2023-05-25T05:58:05.362Z,100602.16
2023-05-25T06:01:53.971Z,100602.45
2023-05-25T06:05:41.633Z,100606.66
2023-05-25T06:09:29.363Z,100605.90
2023-05-25T06:13:18.116Z,100610.88
2023-05-25T06:17:06.896Z,100613.85
2023-05-25T06:20:55.612Z,100610.89
2023-05-25T06:24:42.889Z,100610.05
2023-05-25T06:28:21.499Z,100610.36
2023-05-25T06:31:22.333Z,100607.36
2023-05-25T06:35:09.665Z,100604.13
2023-05-25T06:38:47.369Z,100605.10
2023-05-25T06:42:08.132Z,100604.92
2023-05-25T06:45:56.925Z,100609.13
2023-05-25T06:49:45.452Z,100608.28
2023-05-25T06:53:23.747Z,100611.64
2023-05-25T06:56:42.309Z,100610.23
2023-05-25T06:59:22.110Z,100610.05
2023-05-25T07:03:04.701Z,100611.23
2023-05-25T07:06:22.475Z,100607.88
2023-05-25T07:10:00.075Z,100602.77
2023-05-25T07:13:17.951Z,100602.93
2023-05-25T07:16:51.612Z,100601.17
2023-05-25T07:20:25.601Z,100601.06
2023-05-25T07:24:02.714Z,100601.34
2023-05-25T07:27:40.181Z,100597.87
2023-05-25T07:31:28.764Z,100597.40
2023-05-25T07:35:17.312Z,100596.23
2023-05-25T07:38:56.967Z,100595.98
2023-05-25T07:42:45.563Z,100594.17
2023-05-25T07:46:22.567Z,100596.05
2023-05-25T07:50:11.227Z,100593.23
2023-05-25T07:53:40.386Z,100593.52
2023-05-25T07:56:59.299Z,100587.92
2023-05-25T08:00:33.024Z,100589.39
2023-05-25T08:04:14.483Z,100592.24
2023-05-25T08:07:51.641Z,100591.31
2023-05-25T08:11:38.826Z,100580.76
2023-05-25T08:15:27.795Z,100581.31
2023-05-25T08:19:16.175Z,100581.67
2023-05-25T08:23:04.689Z,100580.27
2023-05-25T08:26:54.866Z,100578.52
2023-05-25T08:30:43.931Z,100567.91
2023-05-25T08:34:25.155Z,100571.96
2023-05-25T08:38:13.635Z,100574.98
2023-05-25T08:42:05.256Z,100571.63
2023-05-25T08:45:48.089Z,100573.10
2023-05-25T08:49:36.726Z,100571.58
2023-05-25T08:53:25.326Z,100579.77
2023-05-25T08:57:25.891Z,100578.27
2023-05-25T09:01:17.306Z,100573.39
2023-05-25T09:05:05.824Z,100569.32
2023-05-25T09:08:54.442Z,100572.09
2023-05-25T09:12:43.083Z,100566.44
2023-05-25T09:16:31.681Z,100566.48
2023-05-25T09:20:20.301Z,100563.24
2023-05-25T09:24:08.805Z,100559.37
2023-05-25T09:28:04.832Z,100553.63
2023-05-25T09:31:59.140Z,100559.80
2023-05-25T09:35:47.675Z,100560.83
2023-05-25T09:39:35.098Z,100569.03
2023-05-25T09:43:39.530Z,100574.08
2023-05-25T09:47:30.395Z,100569.60
2023-05-25T09:51:18.986Z,100563.88
2023-05-25T09:55:07.878Z,100561.56
2023-05-25T09:58:49.282Z,100557.22
2023-05-25T10:02:30.692Z,100549.23
2023-05-25T10:06:16.621Z,100548.90
2023-05-25T10:10:05.300Z,100547.85
2023-05-25T10:13:53.888Z,100541.82
2023-05-25T10:17:40.551Z,100540.65
2023-05-25T10:21:29.071Z,100541.63
2023-05-25T10:25:23.845Z,100542.06
2023-05-25T10:29:15.506Z,100554.29
2023-05-25T10:33:03.085Z,100562.56
2023-05-25T10:36:51.662Z,100566.64
2023-05-25T10:40:40.154Z,100586.01
2023-05-25T10:44:28.743Z,100588.81
2023-05-25T10:48:21.081Z,100582.98
2023-05-25T10:52:18.749Z,100580.11
2023-05-25T10:55:46.650Z,100573.41
2023-05-25T10:59:24.190Z,100568.95
2023-05-25T11:03:08.909Z,100568.20
2023-05-25T11:07:00.184Z,100565.97
2023-05-25T11:10:57.999Z,100568.15
2023-05-25T11:14:46.481Z,100568.06
2023-05-25T11:18:41.049Z,100565.11
2023-05-25T11:22:22.837Z,100563.73
2023-05-25T11:26:17.561Z,100562.20
2023-05-25T11:30:15.381Z,100571.41
2023-05-25T11:34:02.853Z,100568.01
2023-05-25T11:37:50.953Z,100571.20
2023-05-25T11:41:39.387Z,100573.13
2023-05-25T11:45:30.954Z,100576.27
2023-05-25T11:49:19.430Z,100568.18
2023-05-25T11:53:07.921Z,100563.95
2023-05-25T11:56:56.540Z,100561.14
2023-05-25T12:00:32.460Z,100558.33
2023-05-25T12:04:30.202Z,100553.20
2023-05-25T12:08:18.926Z,100546.15
2023-05-25T12:12:07.452Z,100539.99
2023-05-25T12:15:58.941Z,100528.85
2023-05-25T12:19:47.485Z,100527.14
2023-05-25T12:23:29.055Z,100520.79
2023-05-25T12:27:12.074Z,100527.85
2023-05-25T12:31:01.733Z,100528.54
2023-05-25T12:35:04.365Z,100521.34
2023-05-25T12:38:55.740Z,100517.75
2023-05-25T12:42:43.146Z,100521.89
2023-05-25T12:46:32.078Z,100515.89
2023-05-25T12:50:32.877Z,100512.05
2023-05-25T12:54:30.504Z,100511.14
2023-05-25T12:58:19.037Z,100513.45
2023-05-25T13:02:08.821Z,100518.02
2023-05-25T13:05:57.574Z,100519.11
2023-05-25T13:09:45.425Z,100515.05
2023-05-25T13:13:33.949Z,100507.89
2023-05-25T13:17:22.708Z,100512.49
2023-05-25T13:21:14.370Z,100515.98
2023-05-25T13:25:02.916Z,100516.59
2023-05-25T13:28:51.437Z,100521.46
2023-05-25T13:32:39.954Z,100532.19
2023-05-25T13:36:28.564Z,100532.75
2023-05-25T13:40:17.018Z,100526.08
2023-05-25T13:44:05.471Z,100526.08
2023-05-25T13:47:53.037Z,100526.27
2023-05-25T13:51:41.798Z,100519.61
2023-05-25T13:55:30.789Z,100518.55
2023-05-25T13:59:19.273Z,100516.52
2023-05-25T14:03:07.922Z,100517.28
2023-05-25T14:06:55.860Z,100523.05
2023-05-25T14:10:44.960Z,100518.25
2023-05-25T14:14:34.175Z,100522.77
2023-05-25T14:18:21.820Z,100515.38
2023-05-25T14:22:12.480Z,100515.89
2023-05-25T14:25:42.756Z,100516.27
2023-05-25T14:29:31.328Z,100510.54
2023-05-25T14:33:18.640Z,100511.93
2023-05-25T14:37:07.265Z,100523.52
2023-05-25T14:40:56.434Z,100519.49
2023-05-25T14:44:44.898Z,100518.84
2023-05-25T14:48:29.172Z,100515.88
2023-05-25T14:52:17.797Z,100514.61
2023-05-25T14:55:56.631Z,100512.89
2023-05-25T14:59:45.296Z,100506.64
2023-05-25T15:03:34.078Z,100512.13
2023-05-25T15:07:21.583Z,100509.77
2023-05-25T15:10:52.068Z,100511.17
2023-05-25T15:14:14.705Z,100511.09
2023-05-25T15:17:23.207Z,100509.45
2023-05-25T15:20:39.140Z,100513.35
2023-05-25T15:24:28.454Z,100516.59
2023-05-25T15:28:10.814Z,100514.02
2023-05-25T15:31:59.992Z,100508.45
2023-05-25T15:35:48.754Z,100508.02
2023-05-25T15:39:37.280Z,100511.36
2023-05-25T15:43:25.765Z,100509.21
2023-05-25T15:47:13.982Z,100505.44
2023-05-25T15:51:03.838Z,100506.59
2023-05-25T15:54:51.262Z,100509.38
2023-05-25T15:58:39.802Z,100507.80
2023-05-25T16:02:28.707Z,100509.55
2023-05-25T16:06:17.345Z,100514.17
2023-05-25T16:10:05.791Z,100511.30
2023-05-25T16:13:54.353Z,100508.98
2023-05-25T16:17:42.885Z,100509.00
2023-05-25T16:21:31.383Z,100505.64
2023-05-25T16:25:21.550Z,100499.02
2023-05-25T16:29:10.061Z,100495.84
2023-05-25T16:32:58.893Z,100494.04
2023-05-25T16:36:30.136Z,100497.30
2023-05-25T16:40:18.775Z,100495.82
2023-05-25T16:44:07.268Z,100496.64
2023-05-25T16:47:55.804Z,100497.29
2023-05-25T16:51:44.672Z,100494.75
2023-05-25T16:54:43.943Z,100490.79
2023-05-25T16:58:15.366Z,100491.54
2023-05-25T17:01:23.717Z,100492.33
2023-05-25T17:05:12.207Z,100495.95
2023-05-25T17:08:51.304Z,100495.33
2023-05-25T17:12:39.810Z,100496.33
2023-05-25T17:16:28.393Z,100498.44
2023-05-25T17:20:17.812Z,100504.30
2023-05-25T17:24:06.318Z,100503.67
2023-05-25T17:27:54.806Z,100505.14
2023-05-25T17:31:43.330Z,100502.89
2023-05-25T17:35:31.995Z,100503.90
2023-05-25T17:39:20.616Z,100503.65
2023-05-25T17:43:09.215Z,100500.24
2023-05-25T17:46:57.690Z,100504.41
2023-05-25T17:50:47.055Z,100500.16
2023-05-25T17:54:35.564Z,100501.68
2023-05-25T17:58:24.038Z,100507.27
2023-05-25T18:02:12.619Z,100507.38
2023-05-25T18:06:01.942Z,100517.62
2023-05-25T18:09:50.879Z,100524.11
2023-05-25T18:13:32.351Z,100531.11
2023-05-25T18:17:19.301Z,100527.52
2023-05-25T18:20:34.441Z,100531.98
2023-05-25T18:24:23.224Z,100532.50
2023-05-25T18:28:12.147Z,100534.73
2023-05-25T18:32:00.814Z,100541.75
2023-05-25T18:35:42.677Z,100540.72
2023-05-25T18:39:31.594Z,100536.94
2023-05-25T18:43:19.850Z,100540.38
2023-05-25T18:46:17.405Z,100548.69
2023-05-25T18:50:06.065Z,100547.30
2023-05-25T18:53:54.698Z,100542.87
2023-05-25T18:57:36.697Z,100540.09
2023-05-25T19:01:25.281Z,100544.23
2023-05-25T19:05:08.234Z,100539.90
2023-05-25T19:08:57.235Z,100541.66
2023-05-25T19:12:46.885Z,100539.86
2023-05-25T19:16:35.776Z,100544.09
2023-05-25T19:20:24.535Z,100539.45
2023-05-25T19:24:13.161Z,100535.09
2023-05-25T19:28:02.019Z,100537.77
2023-05-25T19:31:52.923Z,100534.77
2023-05-25T19:35:41.624Z,100533.95
2023-05-25T19:39:30.127Z,100534.40
2023-05-25T19:43:19.001Z,100535.16
2023-05-25T19:47:07.763Z,100543.44
2023-05-25T19:50:56.576Z,100536.48
2023-05-25T19:55:30.565Z,100538.45
2023-05-25T19:58:48.713Z,100542.79
2023-05-25T20:02:38.231Z,100543.36
2023-05-25T20:06:26.918Z,100540.55
2023-05-25T20:10:08.632Z,100544.77
2023-05-25T20:13:56.614Z,100545.95
2023-05-25T20:17:45.471Z,100554.91
2023-05-25T20:21:33.969Z,100553.64
2023-05-25T20:25:22.471Z,100555.66
2023-05-25T20:29:11.071Z,100555.03
2023-05-25T20:32:44.281Z,100553.14
2023-05-25T20:36:33.201Z,100550.42
2023-05-25T20:40:18.318Z,100548.95
2023-05-25T20:43:50.214Z,100549.63
2023-05-25T20:47:38.725Z,100544.17
2023-05-25T20:50:19.932Z,100538.34
2023-05-25T20:54:05.131Z,100536.05
2023-05-25T20:57:52.689Z,100536.25
2023-05-25T21:01:30.558Z,100537.05
2023-05-25T21:05:19.345Z,100541.63
2023-05-25T21:09:01.740Z,100541.49
2023-05-25T21:12:50.308Z,100538.44
2023-05-25T21:16:38.947Z,100528.86
2023-05-25T21:20:20.269Z,100529.27
2023-05-25T21:24:08.870Z,100530.23
2023-05-25T21:27:21.182Z,100530.88
2023-05-25T21:31:09.770Z,100532.14
2023-05-25T21:34:58.327Z,100531.27
2023-05-25T21:38:46.825Z,100533.41
2023-05-25T21:42:35.363Z,100538.16
2023-05-25T21:46:23.818Z,100535.63
2023-05-25T21:50:12.277Z,100532.05
2023-05-25T21:54:00.875Z,100537.58
2023-05-25T21:57:49.421Z,100538.78
2023-05-25T22:01:30.671Z,100540.09
2023-05-25T22:05:18.155Z,100540.06
2023-05-25T22:08:59.619Z,100543.62
2023-05-25T22:12:47.551Z,100541.29
2023-05-25T22:16:35.251Z,100537.68
2023-05-25T22:20:23.787Z,100533.05
2023-05-25T22:24:12.367Z,100535.73
2023-05-25T22:28:00.857Z,100534.65
2023-05-25T22:31:49.881Z,100532.08
2023-05-25T22:35:38.536Z,100528.98
2023-05-25T22:39:27.045Z,100519.61
2023-05-25T22:43:14.227Z,100517.34
2023-05-25T22:47:02.773Z,100519.79
2023-05-25T22:50:51.369Z,100520.11
2023-05-25T22:54:35.180Z,100525.18
2023-05-25T22:58:23.671Z,100520.92
2023-05-25T23:02:12.233Z,100520.39
2023-05-25T23:06:01.001Z,100521.03
2023-05-25T23:09:42.468Z,100517.73
2023-05-25T23:13:31.800Z,100524.35
2023-05-25T23:17:13.338Z,100524.74
2023-05-25T23:21:01.924Z,100521.43
2023-05-25T23:24:44.539Z,100519.91
2023-05-25T23:28:33.636Z,100519.45
2023-05-25T23:32:22.158Z,100519.07
2023-05-25T23:36:10.714Z,100521.71
2023-05-25T23:39:59.640Z,100522.38
2023-05-25T23:43:38.374Z,100522.23
2023-05-25T23:47:26.829Z,100529.31
2023-05-25T23:51:14.270Z,100531.10
2023-05-25T23:55:01.466Z,100529.72
2023-05-25T23:58:50.071Z,100523.50
